Time;durP1;ratioP1;P1;durP2;ratioP2;P2;SDS_P1;SDS_P2;PMS_P1;PMS_P2;Temp;Humidity;BMP_temperature;BMP_pressure;BME280_temperature;BME280_humidity;BME280_pressure;Samples;Min_cycle;Max_cycle;Signal;HPM_P1;HPM_P2
2022/10/22 00:00:12;;;;;;;;;;;;;;;8.19;100.00;97813.84;7387252;19;20581;-47
2022/10/22 00:02:45;;;;;;;;;;;;;;;8.46;100.00;97816.69;7382461;19;20379;-57
2022/10/22 00:05:24;;;;;;;;;;;;;;;8.41;100.00;97810.88;7387710;19;19926;-47
2022/10/22 00:07:59;;;;;;;;;;;;;;;8.31;100.00;97808.75;7389011;19;19922;-54
2022/10/22 00:10:35;;;;;;;;;;;;;;;8.25;100.00;97824.84;7387601;19;19919;-48
2022/10/22 00:13:11;;;;;;;;;;;;;;;8.42;100.00;97802.06;7388490;19;19915;-48
2022/10/22 00:15:45;;;;;;;;;;;;;;;8.26;100.00;97813.44;7383767;19;19921;-46
2022/10/22 00:18:18;;;;;;;;;;;;;;;8.29;100.00;97810.66;7386474;19;19967;-47
2022/10/22 00:20:51;;;;;;;;;;;;;;;8.21;100.00;97812.84;7387327;19;19927;-55
2022/10/22 00:23:25;;;;;;;;;;;;;;;8.33;100.00;97806.91;7389483;19;19911;-49
2022/10/22 00:25:59;;;;;;;;;;;;;;;8.33;100.00;97796.44;7389189;19;19915;-50
2022/10/22 00:28:34;;;;;;;;;;;;;;;8.18;100.00;97802.56;7382194;19;20240;-49
2022/10/22 00:31:07;;;;;;;;;;;;;;;8.34;100.00;97798.13;7386606;19;20235;-47
2022/10/22 00:33:40;;;;;;;;;;;;;;;8.24;100.00;97798.75;7387721;19;19915;-48
2022/10/22 00:36:14;;;;;;;;;;;;;;;8.22;100.00;97798.81;7388561;19;19915;-46
2022/10/22 00:38:47;;;;;;;;;;;;;;;8.33;100.00;97796.44;7386226;19;19939;-47
2022/10/22 00:41:20;;;;;;;;;;;;;;;8.20;100.00;97795.44;7382849;19;20363;-48
2022/10/22 00:44:04;;;;;;;;;;;;;;;8.23;100.00;97790.03;7387774;19;19986;-47
2022/10/22 00:46:38;;;;;;;;;;;;;;;8.38;100.00;97795.31;7383010;19;19911;-55
2022/10/22 00:49:17;;;;;;;;;;;;;;;8.29;100.00;97797.53;7387227;19;19918;-48
2022/10/22 00:51:52;;;;;;;;;;;;;;;8.26;100.00;97797.72;7384119;19;20275;-51
2022/10/22 00:54:25;;;;;;;;;;;;;;;8.23;100.00;97800.50;7388315;19;19919;-47
2022/10/22 00:57:01;;;;;;;;;;;;;;;8.32;100.00;97796.53;7386794;19;19938;-47
2022/10/22 00:59:37;;;;;;;;;;;;;;;8.32;100.00;97792.09;7379884;19;19914;-47
2022/10/22 01:02:10;;;;;;;;;;;;;;;8.29;100.00;97789.69;7386811;19;19987;-49
2022/10/22 01:04:43;;;;;;;;;;;;;;;8.22;100.00;97787.50;7381612;19;19978;-59
2022/10/22 01:07:21;;;;;;;;;;;;;;;8.18;100.00;97792.06;7384878;19;20011;-47
2022/10/22 01:09:58;;;;;;;;;;;;;;;8.23;100.00;97790.03;7384185;19;20335;-47
2022/10/22 01:12:36;;;;;;;;;;;;;;;7.92;100.00;97790.06;7383149;19;19926;-51
2022/10/22 01:15:16;;;;;;;;;;;;;;;8.29;100.00;97784.44;7387641;19;19943;-47
2022/10/22 01:17:55;;;;;;;;;;;;;;;8.16;100.00;97788.69;7385530;19;20259;-49
2022/10/22 01:20:45;;;;;;;;;;;;;;;7.90;100.00;97786.66;7385355;19;19934;-48
2022/10/22 01:23:27;;;;;;;;;;;;;;;7.97;100.00;97792.41;7385011;19;19911;-47
2022/10/22 01:26:06;;;;;;;;;;;;;;;7.87;100.00;97802.53;7386255;19;19919;-48
2022/10/22 01:28:57;;;;;;;;;;;;;;;8.03;100.00;97803.41;7385555;19;20319;-52
2022/10/22 01:31:31;;;;;;;;;;;;;;;8.02;100.00;97801.69;7381272;19;19911;-59
2022/10/22 01:34:05;;;;;;;;;;;;;;;8.01;100.00;97805.25;7387338;19;19919;-47
2022/10/22 01:36:41;;;;;;;;;;;;;;;8.01;100.00;97800.00;7385723;19;19942;-48
2022/10/22 01:39:18;;;;;;;;;;;;;;;7.95;100.00;97805.56;7385629;19;19919;-47
2022/10/22 01:41:51;;;;;;;;;;;;;;;7.88;100.00;97803.41;7395318;19;19982;-47
2022/10/22 01:44:36;;;;;;;;;;;;;;;7.89;100.00;97803.31;7387725;19;19913;-48
2022/10/22 01:47:23;;;;;;;;;;;;;;;7.90;100.00;97804.13;7394791;19;19925;-47
2022/10/22 01:50:07;;;;;;;;;;;;;;;7.86;100.00;97808.72;7391732;19;21141;-47
2022/10/22 01:52:48;;;;;;;;;;;;;;;7.87;100.00;97823.50;7389998;19;19911;-48
2022/10/22 01:55:26;;;;;;;;;;;;;;;8.05;100.00;97819.00;7391885;19;19915;-47
2022/10/22 01:58:04;;;;;;;;;;;;;;;8.15;100.00;97813.19;7390947;19;19911;-47
2022/10/22 02:00:42;;;;;;;;;;;;;;;7.91;100.00;97809.28;7392888;19;19915;-48
2022/10/22 02:03:17;;;;;;;;;;;;;;;7.96;100.00;97795.97;7388892;19;20334;-48
2022/10/22 02:05:53;;;;;;;;;;;;;;;7.82;100.00;97798.50;7385849;19;19915;-52
2022/10/22 02:08:27;;;;;;;;;;;;;;;7.77;100.00;97796.13;7389139;19;20294;-47
2022/10/22 02:11:01;;;;;;;;;;;;;;;8.01;100.00;97807.84;7390950;19;19911;-58
2022/10/22 02:13:37;;;;;;;;;;;;;;;7.79;100.00;97801.28;7393493;19;19922;-51
2022/10/22 02:16:15;;;;;;;;;;;;;;;7.77;100.00;97796.13;7392167;19;19966;-47
2022/10/22 02:18:51;;;;;;;;;;;;;;;7.92;100.00;97790.06;7390746;19;20533;-48
2022/10/22 02:21:23;;;;;;;;;;;;;;;7.90;100.00;97784.06;7392792;19;19982;-51
2022/10/22 02:23:56;;;;;;;;;;;;;;;7.83;100.00;97794.94;7388465;19;20338;-48
2022/10/22 02:26:31;;;;;;;;;;;;;;;8.11;100.00;97790.75;7392571;19;19930;-52
2022/10/22 02:29:09;;;;;;;;;;;;;;;7.90;100.00;97796.28;7392583;19;19918;-57
2022/10/22 02:31:46;;;;;;;;;;;;;;;7.75;100.00;97790.16;7390109;19;20512;-49
2022/10/22 02:34:21;;;;;;;;;;;;;;;7.82;100.00;97795.88;7390064;19;19946;-48
2022/10/22 02:36:55;;;;;;;;;;;;;;;7.87;100.00;97802.53;7387516;19;19935;-49
2022/10/22 02:39:28;;;;;;;;;;;;;;;7.66;100.00;97802.91;7392337;19;19922;-48
2022/10/22 02:42:01;;;;;;;;;;;;;;;7.78;100.00;97813.53;7387192;19;19914;-55
2022/10/22 02:44:34;;;;;;;;;;;;;;;7.65;100.00;97816.91;7389748;19;19915;-49
2022/10/22 02:47:10;;;;;;;;;;;;;;;7.73;100.00;97809.50;7390933;19;19915;-48
2022/10/22 02:49:43;;;;;;;;;;;;;;;7.76;100.00;97806.72;7388631;19;19914;-47
2022/10/22 02:52:16;;;;;;;;;;;;;;;7.88;100.00;97793.75;7388603;19;19914;-47
2022/10/22 02:54:49;;;;;;;;;;;;;;;7.72;100.00;97772.00;7389509;19;19938;-58
2022/10/22 02:57:22;;;;;;;;;;;;;;;7.63;100.00;97767.28;7390416;19;20430;-48
2022/10/22 02:59:54;;;;;;;;;;;;;;;7.60;100.00;97764.81;7387655;19;19911;-54
2022/10/22 03:02:30;;;;;;;;;;;;;;;7.76;100.00;97767.44;7383766;19;19929;-46
2022/10/22 03:05:03;;;;;;;;;;;;;;;7.54;100.00;97778.25;7392602;19;19926;-48
2022/10/22 03:07:36;;;;;;;;;;;;;;;7.85;100.00;97774.78;7391603;19;19930;-51
2022/10/22 03:10:09;;;;;;;;;;;;;;;7.75;100.00;97777.06;7390307;19;19919;-47
2022/10/22 03:12:42;;;;;;;;;;;;;;;7.70;100.00;97784.34;7387223;19;20328;-48
2022/10/22 03:15:16;;;;;;;;;;;;;;;7.53;100.00;97787.03;7384656;19;19915;-47
2022/10/22 03:17:52;;;;;;;;;;;;;;;7.65;100.00;97807.28;7389226;19;19911;-49
2022/10/22 03:20:25;;;;;;;;;;;;;;;7.64;100.00;97805.59;7391919;19;19926;-48
2022/10/22 03:22:58;;;;;;;;;;;;;;;7.57;100.00;97819.09;7390081;19;19919;-47
2022/10/22 03:25:33;;;;;;;;;;;;;;;7.64;100.00;97817.81;7388322;19;20243;-50
2022/10/22 03:28:08;;;;;;;;;;;;;;;7.40;100.00;97822.59;7385092;19;20211;-47
2022/10/22 03:30:41;;;;;;;;;;;;;;;7.44;100.00;97811.09;7387037;19;19919;-46
2022/10/22 03:33:16;;;;;;;;;;;;;;;7.59;100.00;97807.63;7387602;19;19923;-46
2022/10/22 03:35:51;;;;;;;;;;;;;;;7.57;100.00;97804.25;7389370;19;20884;-52
2022/10/22 03:38:24;;;;;;;;;;;;;;;7.28;100.00;97809.38;7391175;19;19914;-47
2022/10/22 03:40:56;;;;;;;;;;;;;;;7.46;100.00;97801.38;7383338;19;19918;-52
2022/10/22 03:43:30;;;;;;;;;;;;;;;7.34;100.00;97806.41;7390781;19;19955;-51
2022/10/22 03:46:03;;;;;;;;;;;;;;;7.26;100.00;97804.22;7390221;19;19915;-52
2022/10/22 03:48:38;;;;;;;;;;;;;;;7.58;100.00;97798.06;7386416;19;20015;-48
2022/10/22 03:51:11;;;;;;;;;;;;;;;7.57;100.00;97796.38;7389686;19;19917;-47
2022/10/22 03:53:44;;;;;;;;;;;;;;;7.66;100.00;97801.09;7385351;19;20383;-48
2022/10/22 03:56:18;;;;;;;;;;;;;;;7.58;100.00;97799.88;7388089;19;20379;-48
2022/10/22 03:58:51;;;;;;;;;;;;;;;7.59;100.00;97807.63;7387904;19;19915;-47
2022/10/22 04:01:24;;;;;;;;;;;;;;;7.38;100.00;97803.56;7386579;19;19944;-47
2022/10/22 04:04:00;;;;;;;;;;;;;;;7.49;100.00;97800.34;7386239;19;19911;-49
2022/10/22 04:06:34;;;;;;;;;;;;;;;7.56;100.00;97799.94;7384162;19;19911;-47
2022/10/22 04:09:07;;;;;;;;;;;;;;;7.45;100.00;97802.31;7386996;19;19946;-50
2022/10/22 04:11:41;;;;;;;;;;;;;;;7.46;100.00;97805.75;7388607;19;19915;-47
2022/10/22 04:14:13;;;;;;;;;;;;;;;7.49;100.00;97801.22;7386327;19;19915;-56
2022/10/22 04:16:47;;;;;;;;;;;;;;;7.28;100.00;97804.97;7387816;19;19919;-46
2022/10/22 04:19:23;;;;;;;;;;;;;;;7.33;100.00;97808.19;7385620;19;19919;-50
2022/10/22 04:21:56;;;;;;;;;;;;;;;7.25;100.00;97801.69;7386291;19;19911;-47
2022/10/22 04:24:29;;;;;;;;;;;;;;;7.24;100.00;97790.38;7389656;19;19929;-48
2022/10/22 04:27:02;;;;;;;;;;;;;;;7.39;100.00;97786.94;7384576;19;20331;-47
2022/10/22 04:29:35;;;;;;;;;;;;;;;7.15;100.00;97803.94;7388722;19;19970;-49
2022/10/22 04:32:08;;;;;;;;;;;;;;;7.12;100.00;97804.09;7385497;19;19925;-47
2022/10/22 04:34:46;;;;;;;;;;;;;;;7.17;100.00;97799.47;7386808;19;19918;-46
2022/10/22 04:37:19;;;;;;;;;;;;;;;7.28;100.00;97796.28;7384575;19;19911;-46
2022/10/22 04:39:52;;;;;;;;;;;;;;;7.28;100.00;97791.88;7385070;19;19914;-47
2022/10/22 04:42:25;;;;;;;;;;;;;;;7.38;100.00;97782.63;7384955;19;19923;-48
2022/10/22 04:44:57;;;;;;;;;;;;;;;7.28;100.00;97770.13;7386819;19;19911;-46
2022/10/22 04:47:30;;;;;;;;;;;;;;;7.54;100.00;97774.78;7388509;19;19919;-47
2022/10/22 04:50:05;;;;;;;;;;;;;;;7.36;100.00;97768.78;7387197;19;20015;-46
2022/10/22 04:52:38;;;;;;;;;;;;;;;7.50;100.00;97766.25;7381120;19;20304;-47
2022/10/22 04:55:11;;;;;;;;;;;;;;;7.51;100.00;97761.88;7387602;19;19918;-46
2022/10/22 04:57:44;;;;;;;;;;;;;;;7.53;100.00;97760.88;7386413;19;19923;-49
2022/10/22 05:00:18;;;;;;;;;;;;;;;7.58;100.00;97747.53;7387192;19;20461;-48
2022/10/22 05:02:54;;;;;;;;;;;;;;;7.23;100.00;97759.91;7387194;19;19926;-47
2022/10/22 05:05:30;;;;;;;;;;;;;;;7.36;100.00;97760.94;7381061;19;19942;-49
2022/10/22 05:08:03;;;;;;;;;;;;;;;7.45;100.00;97768.28;7387384;19;20300;-48
2022/10/22 05:10:36;;;;;;;;;;;;;;;7.46;100.00;97766.50;7384103;19;20339;-50
2022/10/22 05:13:09;;;;;;;;;;;;;;;7.53;100.00;97763.47;7386564;19;20407;-48
2022/10/22 05:15:42;;;;;;;;;;;;;;;7.54;100.00;97756.47;7384642;19;19929;-49
2022/10/22 05:18:14;;;;;;;;;;;;;;;7.44;100.00;97756.16;7383485;19;19922;-47
2022/10/22 05:20:50;;;;;;;;;;;;;;;7.56;100.00;97765.06;7386782;19;19919;-47
2022/10/22 05:23:23;;;;;;;;;;;;;;;7.50;100.00;97765.44;7386215;19;19919;-51
2022/10/22 05:25:56;;;;;;;;;;;;;;;7.56;100.00;97771.16;7385199;19;19937;-47
2022/10/22 05:28:29;;;;;;;;;;;;;;;7.66;100.00;97766.25;7387968;19;19915;-46
2022/10/22 05:31:02;;;;;;;;;;;;;;;7.28;100.00;97776.19;7382534;19;19920;-47
2022/10/22 05:33:36;;;;;;;;;;;;;;;7.53;100.00;97757.38;7385951;19;19917;-45
2022/10/22 05:36:12;;;;;;;;;;;;;;;7.58;100.00;97758.00;7387107;19;19929;-46
2022/10/22 05:38:45;;;;;;;;;;;;;;;7.56;100.00;97768.53;7383505;19;19982;-46
2022/10/22 05:41:18;;;;;;;;;;;;;;;7.65;100.00;97775.06;7386085;19;19934;-46
2022/10/22 05:43:51;;;;;;;;;;;;;;;7.88;100.00;97762.34;7373118;19;19907;-51
2022/10/22 05:46:25;;;;;;;;;;;;;;;7.55;100.00;97774.69;7384894;19;19923;-48
2022/10/22 05:48:59;;;;;;;;;;;;;;;7.74;100.00;97775.38;7384199;19;19915;-46
2022/10/22 05:51:36;;;;;;;;;;;;;;;7.80;100.00;97777.63;7381891;19;20697;-47
2022/10/22 05:54:11;;;;;;;;;;;;;;;7.86;100.00;97789.53;7382440;19;19938;-47
2022/10/22 05:56:44;;;;;;;;;;;;;;;7.65;100.00;97806.44;7376264;19;19923;-47
2022/10/22 05:59:17;;;;;;;;;;;;;;;7.86;100.00;97827.03;7385332;19;19919;-47
2022/10/22 06:01:50;;;;;;;;;;;;;;;8.00;100.00;97819.28;7383506;19;20264;-49
2022/10/22 06:04:23;;;;;;;;;;;;;;;7.81;100.00;97817.75;7376440;19;19915;-52
2022/10/22 06:07:00;;;;;;;;;;;;;;;7.85;100.00;97809.66;7379966;19;20275;-55
2022/10/22 06:09:34;;;;;;;;;;;;;;;7.74;100.00;97806.78;7371228;19;19936;-52
2022/10/22 06:12:12;;;;;;;;;;;;;;;7.74;100.00;97805.94;7375436;19;19926;-49
2022/10/22 06:14:45;;;;;;;;;;;;;;;7.96;100.00;97807.28;7384950;19;19975;-56
2022/10/22 06:17:21;;;;;;;;;;;;;;;7.94;100.00;97805.66;7382429;19;19921;-50
2022/10/22 06:19:55;;;;;;;;;;;;;;;7.98;100.00;97791.50;7383229;19;20319;-47
2022/10/22 06:22:31;;;;;;;;;;;;;;;8.12;100.00;97791.56;7379893;19;19926;-47
2022/10/22 06:25:04;;;;;;;;;;;;;;;8.00;100.00;97800.94;7383984;19;20341;-48
2022/10/22 06:27:38;;;;;;;;;;;;;;;8.05;100.00;97800.66;7386507;19;20310;-48
2022/10/22 06:30:11;;;;;;;;;;;;;;;8.44;100.00;97801.03;7391285;19;19918;-47
2022/10/22 06:32:44;;;;;;;;;;;;;;;8.42;100.00;97812.56;7390392;19;19919;-49
2022/10/22 06:35:17;;;;;;;;;;;;;;;8.29;100.00;97809.78;7385495;19;19919;-49
2022/10/22 06:37:53;;;;;;;;;;;;;;;8.93;100.00;97799.00;7388913;19;19925;-49
2022/10/22 06:40:29;;;;;;;;;;;;;;;8.75;100.00;97798.28;7387859;19;19921;-58
2022/10/22 06:43:02;;;;;;;;;;;;;;;9.02;100.00;97801.91;7390122;19;19939;-49
2022/10/22 06:45:35;;;;;;;;;;;;;;;8.92;100.00;97813.03;7390871;19;19919;-48
2022/10/22 06:48:08;;;;;;;;;;;;;;;9.10;100.00;97819.78;7384454;19;19919;-49
2022/10/22 06:50:41;;;;;;;;;;;;;;;9.09;100.00;97839.94;7392246;19;19942;-50
2022/10/22 06:53:17;;;;;;;;;;;;;;;9.17;100.00;97845.56;7387197;19;20303;-58
2022/10/22 06:55:50;;;;;;;;;;;;;;;8.93;100.00;97861.94;7386377;19;20336;-51
2022/10/22 06:58:23;;;;;;;;;;;;;;;9.11;100.00;97855.59;7391869;19;19947;-48
2022/10/22 07:00:56;;;;;;;;;;;;;;;8.99;100.00;97867.66;7384069;19;20268;-49
2022/10/22 07:03:29;;;;;;;;;;;;;;;9.25;100.00;97881.81;7386039;19;19918;-57
2022/10/22 07:06:05;;;;;;;;;;;;;;;9.20;100.00;97883.88;7387362;19;20055;-50
2022/10/22 07:08:41;;;;;;;;;;;;;;;9.22;100.00;97884.66;7382751;19;19923;-49
2022/10/22 07:11:15;;;;;;;;;;;;;;;9.02;100.00;97884.97;7387561;19;20587;-47
2022/10/22 07:13:48;;;;;;;;;;;;;;;9.08;100.00;97889.88;7380206;19;19911;-49
2022/10/22 07:16:22;;;;;;;;;;;;;;;9.21;100.00;97891.69;7387286;19;19919;-55
2022/10/22 07:18:56;;;;;;;;;;;;;;;9.20;100.00;97882.13;7384216;19;19919;-58
2022/10/22 07:21:29;;;;;;;;;;;;;;;9.24;100.00;97894.13;7387366;19;19939;-49
2022/10/22 07:24:05;;;;;;;;;;;;;;;9.13;100.00;97882.56;7387013;19;19922;-50
2022/10/22 07:26:39;;;;;;;;;;;;;;;9.33;100.00;97875.19;7380826;19;20234;-52
2022/10/22 07:29:14;;;;;;;;;;;;;;;9.75;100.00;97874.38;7388141;19;20252;-49
2022/10/22 07:31:47;;;;;;;;;;;;;;;9.57;100.00;97862.34;7382951;19;20366;-58
2022/10/22 07:34:20;;;;;;;;;;;;;;;9.84;100.00;97837.03;7387981;19;19911;-49
2022/10/22 07:36:53;;;;;;;;;;;;;;;9.95;100.00;97842.44;7390427;19;20234;-50
2022/10/22 07:39:29;;;;;;;;;;;;;;;9.90;100.00;97836.66;7383752;19;19923;-51
2022/10/22 07:42:02;;;;;;;;;;;;;;;10.09;100.00;97810.88;7388840;19;20315;-49
2022/10/22 07:44:35;;;;;;;;;;;;;;;10.32;100.00;97805.81;7389875;19;19919;-53
2022/10/22 07:47:08;;;;;;;;;;;;;;;10.49;100.00;97805.56;7391538;19;19918;-51
2022/10/22 07:49:40;;;;;;;;;;;;;;;10.62;100.00;97813.50;7391413;19;20322;-50
2022/10/22 07:52:13;;;;;;;;;;;;;;;10.88;100.00;97820.47;7385058;19;19918;-49
2022/10/22 07:54:49;;;;;;;;;;;;;;;10.80;100.00;97813.09;7388791;19;19911;-50
2022/10/22 07:57:23;;;;;;;;;;;;;;;10.81;100.00;97829.72;7391021;19;19954;-58
2022/10/22 07:59:57;;;;;;;;;;;;;;;10.75;100.00;97840.66;7388642;19;20222;-48
2022/10/22 08:02:30;;;;;;;;;;;;;;;10.83;100.00;97847.09;7385503;19;19923;-52
2022/10/22 08:05:03;;;;;;;;;;;;;;;10.71;100.00;97850.53;7384972;19;19998;-53
2022/10/22 08:07:36;;;;;;;;;;;;;;;11.04;100.00;97855.34;7390590;19;19938;-50
2022/10/22 08:10:13;;;;;;;;;;;;;;;10.95;100.00;97850.69;7388758;19;19943;-49
2022/10/22 08:12:46;;;;;;;;;;;;;;;11.30;100.00;97846.53;7389226;19;19914;-53
2022/10/22 08:15:21;;;;;;;;;;;;;;;11.19;100.00;97831.47;7390320;19;19967;-54
2022/10/22 08:17:54;;;;;;;;;;;;;;;11.09;100.00;97825.16;7383873;19;20271;-49
2022/10/22 08:20:27;;;;;;;;;;;;;;;11.13;100.00;97824.00;7390458;19;19923;-50
2022/10/22 08:23:00;;;;;;;;;;;;;;;11.25;100.00;97824.94;7390564;19;20265;-49
2022/10/22 08:25:35;;;;;;;;;;;;;;;11.28;100.00;97835.25;7389751;19;20163;-49
2022/10/22 08:28:09;;;;;;;;;;;;;;;11.17;100.00;97827.28;7390070;19;19925;-47
2022/10/22 08:30:43;;;;;;;;;;;;;;;10.97;100.00;97833.00;7381662;19;19927;-51
2022/10/22 08:33:17;;;;;;;;;;;;;;;11.33;100.00;97846.31;7386963;19;19922;-51
2022/10/22 08:35:53;;;;;;;;;;;;;;;11.00;100.00;97854.72;7387839;19;19936;-55
2022/10/22 08:38:26;;;;;;;;;;;;;;;10.95;100.00;97845.44;7387979;19;20419;-49
2022/10/22 08:41:06;;;;;;;;;;;;;;;10.96;100.00;97849.75;7387738;19;19935;-50
2022/10/22 08:43:57;;;;;;;;;;;;;;;11.04;100.00;97852.72;7382364;19;19953;-50
2022/10/22 08:46:44;;;;;;;;;;;;;;;11.12;100.00;97851.25;7381953;19;20247;-50
2022/10/22 08:49:21;;;;;;;;;;;;;;;11.09;100.00;97847.97;7383688;19;19921;-53
2022/10/22 08:51:55;;;;;;;;;;;;;;;11.09;100.00;97850.63;7388792;19;19970;-59
2022/10/22 08:54:36;;;;;;;;;;;;;;;11.28;100.00;97848.41;7385120;19;20266;-49
2022/10/22 08:57:17;;;;;;;;;;;;;;;11.00;100.00;97851.25;7385515;19;19915;-51
2022/10/22 08:59:52;;;;;;;;;;;;;;;11.09;100.00;97866.41;7388515;19;19947;-48
2022/10/22 09:02:34;;;;;;;;;;;;;;;10.95;100.00;97869.09;7385869;19;19923;-50
2022/10/22 09:05:11;;;;;;;;;;;;;;;10.93;100.00;97866.59;7384858;19;20428;-49
2022/10/22 09:07:48;;;;;;;;;;;;;;;10.83;100.00;97867.28;7386100;19;19915;-48
2022/10/22 09:10:22;;;;;;;;;;;;;;;10.93;100.00;97871.00;7381260;19;20220;-49
2022/10/22 09:12:57;;;;;;;;;;;;;;;10.91;100.00;97873.72;7386472;19;19966;-49
2022/10/22 09:15:32;;;;;;;;;;;;;;;11.00;100.00;97878.41;7381653;19;20536;-57
2022/10/22 09:18:11;;;;;;;;;;;;;;;11.04;100.00;97871.13;7385782;19;19927;-48
2022/10/22 09:20:49;;;;;;;;;;;;;;;10.97;100.00;97883.00;7386358;19;19974;-48
2022/10/22 09:23:30;;;;;;;;;;;;;;;10.97;100.00;97872.47;7386076;19;20258;-50
2022/10/22 09:26:03;;;;;;;;;;;;;;;10.95;100.00;97869.09;7386971;19;19919;-50
2022/10/22 09:28:39;;;;;;;;;;;;;;;11.00;100.00;97865.25;7382550;19;19999;-49
2022/10/22 09:31:15;;;;;;;;;;;;;;;11.06;100.00;97869.25;7385981;19;20331;-49
2022/10/22 09:33:49;;;;;;;;;;;;;;;11.25;100.00;97873.16;7380973;19;19915;-49
2022/10/22 09:36:24;;;;;;;;;;;;;;;11.09;100.00;97871.66;7385927;19;19922;-51
2022/10/22 09:38:59;;;;;;;;;;;;;;;11.11;100.00;97870.63;7382933;19;20288;-58
2022/10/22 09:41:35;;;;;;;;;;;;;;;11.18;100.00;97873.69;7382428;19;20250;-52
2022/10/22 09:44:12;;;;;;;;;;;;;;;11.14;100.00;97875.66;7384411;19;19915;-52
2022/10/22 09:46:45;;;;;;;;;;;;;;;11.03;100.00;97872.09;7380762;19;19923;-51
2022/10/22 09:49:22;;;;;;;;;;;;;;;11.01;100.00;97879.22;7386094;19;19997;-53
2022/10/22 09:51:56;;;;;;;;;;;;;;;11.44;100.00;97868.31;7381470;19;20322;-50
2022/10/22 09:54:30;;;;;;;;;;;;;;;11.13;100.00;97875.78;7383778;19;19926;-49
2022/10/22 09:57:04;;;;;;;;;;;;;;;11.45;100.00;97866.53;7383607;19;19918;-53
2022/10/22 09:59:43;;;;;;;;;;;;;;;11.19;100.00;97878.00;7382981;19;19919;-51
2022/10/22 10:02:18;;;;;;;;;;;;;;;11.52;100.00;97870.44;7388733;19;19918;-49
2022/10/22 10:04:53;;;;;;;;;;;;;;;11.20;100.00;97871.78;7385453;19;19919;-50
2022/10/22 10:07:28;;;;;;;;;;;;;;;11.20;100.00;97877.03;7390341;19;19919;-52
2022/10/22 10:10:03;;;;;;;;;;;;;;;11.06;100.00;97877.16;7388036;19;19922;-53
2022/10/22 10:12:42;;;;;;;;;;;;;;;11.25;100.00;97881.06;7393718;19;19915;-49
2022/10/22 10:15:24;;;;;;;;;;;;;;;11.43;100.00;97879.78;7390210;19;19915;-54
2022/10/22 10:18:06;;;;;;;;;;;;;;;11.32;100.00;97886.75;7393130;19;19938;-52
2022/10/22 10:20:46;;;;;;;;;;;;;;;11.14;100.00;97883.56;7390640;19;19911;-56
2022/10/22 10:23:24;;;;;;;;;;;;;;;11.17;100.00;97878.09;7393252;19;19915;-54
2022/10/22 10:26:01;;;;;;;;;;;;;;;10.95;100.00;97875.19;7389063;19;19922;-52
2022/10/22 10:28:54;;;;;;;;;;;;;;;10.96;100.00;97876.88;7389605;19;19975;-52
2022/10/22 10:31:33;;;;;;;;;;;;;;;11.23;100.00;97887.38;7386801;19;19926;-60
2022/10/22 10:34:11;;;;;;;;;;;;;;;11.05;100.00;97885.97;7391367;19;19910;-51
2022/10/22 10:36:56;;;;;;;;;;;;;;;11.02;100.00;97887.03;7385686;19;20342;-53
2022/10/22 10:39:34;;;;;;;;;;;;;;;10.96;100.00;97878.69;7389132;19;19941;-51
2022/10/22 10:42:13;;;;;;;;;;;;;;;10.92;100.00;97883.28;7385091;19;20363;-58
2022/10/22 10:44:54;;;;;;;;;;;;;;;10.90;100.00;97881.72;7391383;19;19919;-50
2022/10/22 10:47:40;;;;;;;;;;;;;;;10.77;100.00;97883.47;7387373;19;20250;-59
2022/10/22 10:50:25;;;;;;;;;;;;;;;10.97;100.00;97883.00;7390038;19;19935;-50
2022/10/22 10:53:06;;;;;;;;;;;;;;;10.82;100.00;97879.59;7385008;19;19915;-50
2022/10/22 10:55:43;;;;;;;;;;;;;;;10.93;100.00;97881.50;7388488;19;19919;-53
2022/10/22 10:58:21;;;;;;;;;;;;;;;10.72;100.00;97886.41;7386801;19;19915;-50
2022/10/22 11:00:58;;;;;;;;;;;;;;;10.74;100.00;97886.31;7391531;19;19943;-50
2022/10/22 11:03:49;;;;;;;;;;;;;;;10.65;100.00;97871.13;7383688;19;19919;-57
2022/10/22 11:06:25;;;;;;;;;;;;;;;10.69;100.00;97888.38;7392276;19;19918;-54
2022/10/22 11:09:00;;;;;;;;;;;;;;;10.63;100.00;97886.16;7384303;19;19919;-53
2022/10/22 11:11:37;;;;;;;;;;;;;;;10.51;100.00;97876.47;7391013;19;19911;-49
2022/10/22 11:14:17;;;;;;;;;;;;;;;10.46;100.00;97887.25;7383818;19;19937;-55
2022/10/22 11:16:52;;;;;;;;;;;;;;;10.37;100.00;97882.59;7391479;19;19915;-53
2022/10/22 11:19:31;;;;;;;;;;;;;;;10.52;100.00;97867.63;7390189;19;20322;-50
2022/10/22 11:22:10;;;;;;;;;;;;;;;10.53;100.00;97866.66;7390930;19;19925;-50
2022/10/22 11:24:47;;;;;;;;;;;;;;;10.67;100.00;97864.84;7390657;19;19915;-52
2022/10/22 11:27:27;;;;;;;;;;;;;;;10.21;100.00;97870.53;7389568;19;19918;-49
2022/10/22 11:30:04;;;;;;;;;;;;;;;10.29;100.00;97873.53;7390752;19;19926;-52
2022/10/22 11:32:39;;;;;;;;;;;;;;;10.16;100.00;97870.00;7385951;19;21091;-53
2022/10/22 11:35:19;;;;;;;;;;;;;;;10.65;100.00;97863.22;7387183;19;19935;-49
2022/10/22 11:37:53;;;;;;;;;;;;;;;10.35;100.00;97852.94;7383849;19;19970;-52
2022/10/22 11:40:27;;;;;;;;;;;;;;;10.21;100.00;97858.25;7390425;19;19971;-54
2022/10/22 11:43:02;;;;;;;;;;;;;;;10.28;100.00;97845.53;7389553;19;19923;-57
2022/10/22 11:45:37;;;;;;;;;;;;;;;10.35;100.00;97852.94;7389446;19;19925;-53
2022/10/22 11:48:21;;;;;;;;;;;;;;;10.60;100.00;97847.78;7388340;19;19925;-50
2022/10/22 11:51:01;;;;;;;;;;;;;;;10.22;100.00;97848.59;7389663;19;19915;-53
2022/10/22 11:53:37;;;;;;;;;;;;;;;10.29;100.00;97842.81;7389132;19;19926;-53
2022/10/22 11:56:28;;;;;;;;;;;;;;;10.21;100.00;97837.22;7386473;19;19919;-51
2022/10/22 11:59:01;;;;;;;;;;;;;;;10.23;100.00;97845.00;7389516;19;20239;-59
2022/10/22 12:01:45;;;;;;;;;;;;;;;10.28;100.00;97846.41;7388524;19;20328;-49
2022/10/22 12:04:23;;;;;;;;;;;;;;;10.36;100.00;97845.91;7390519;19;20278;-50
2022/10/22 12:07:04;;;;;;;;;;;;;;;10.66;100.00;97844.72;7387795;19;20439;-52
2022/10/22 12:09:38;;;;;;;;;;;;;;;10.70;100.00;97850.63;7386934;19;20280;-52
2022/10/22 12:12:21;;;;;;;;;;;;;;;10.63;100.00;97841.47;7385585;19;20349;-52
2022/10/22 12:14:59;;;;;;;;;;;;;;;10.42;100.00;97827.09;7388900;19;19919;-49
2022/10/22 12:17:34;;;;;;;;;;;;;;;10.68;100.00;97839.38;7386781;19;19919;-50
2022/10/22 12:20:08;;;;;;;;;;;;;;;10.85;100.00;97832.03;7388609;19;20323;-51
2022/10/22 12:22:45;;;;;;;;;;;;;;;10.72;100.00;97840.84;7383509;19;19936;-53
2022/10/22 12:25:23;;;;;;;;;;;;;;;10.76;100.00;97837.06;7387054;19;20257;-49
2022/10/22 12:27:56;;;;;;;;;;;;;;;10.78;100.00;97838.66;7386255;19;20345;-59
2022/10/22 12:30:33;;;;;;;;;;;;;;;10.85;100.00;97832.03;7389069;19;19964;-55
2022/10/22 12:33:10;;;;;;;;;;;;;;;10.72;100.00;97844.31;7388179;19;19943;-50
2022/10/22 12:35:50;;;;;;;;;;;;;;;10.81;100.00;97838.44;7387533;19;19975;-53
2022/10/22 12:38:28;;;;;;;;;;;;;;;10.89;100.00;97836.16;7388307;19;19915;-48
2022/10/22 12:41:02;;;;;;;;;;;;;;;10.75;100.00;97840.66;7384228;19;20259;-54
2022/10/22 12:43:38;;;;;;;;;;;;;;;10.73;100.00;97842.56;7388075;19;19919;-55
2022/10/22 12:46:16;;;;;;;;;;;;;;;10.69;100.00;97831.38;7383386;19;19922;-50
2022/10/22 12:48:50;;;;;;;;;;;;;;;10.78;100.00;97816.78;7388144;19;19910;-53
2022/10/22 12:51:25;;;;;;;;;;;;;;;10.86;100.00;97823.22;7386197;19;19933;-53
2022/10/22 12:54:02;;;;;;;;;;;;;;;10.78;100.00;97808.88;7383771;19;19917;-55
2022/10/22 12:56:37;;;;;;;;;;;;;;;11.01;100.00;97814.31;7377416;19;20247;-52
2022/10/22 12:59:14;;;;;;;;;;;;;;;11.17;100.00;97812.31;7377981;19;19925;-55
2022/10/22 13:01:48;;;;;;;;;;;;;;;11.20;100.00;97809.47;7386276;19;19938;-53
2022/10/22 13:04:27;;;;;;;;;;;;;;;11.06;100.00;97821.91;7378124;19;19911;-55
2022/10/22 13:07:09;;;;;;;;;;;;;;;11.02;100.00;97815.13;7377450;19;19944;-55
2022/10/22 13:09:47;;;;;;;;;;;;;;;11.05;100.00;97828.09;7375263;19;19974;-57
2022/10/22 13:12:20;;;;;;;;;;;;;;;10.76;100.00;97831.81;7382147;19;19919;-53
2022/10/22 13:14:53;;;;;;;;;;;;;;;10.82;100.00;97832.25;7376293;19;19930;-50
2022/10/22 13:17:27;;;;;;;;;;;;;;;10.85;100.00;97829.41;7382425;19;20172;-52
2022/10/22 13:20:06;;;;;;;;;;;;;;;10.94;100.00;97822.69;7386030;19;19919;-52
2022/10/22 13:22:40;;;;;;;;;;;;;;;10.96;100.00;97810.28;7379082;19;19919;-54
2022/10/22 13:25:30;;;;;;;;;;;;;;;11.24;100.00;97810.94;7382789;19;19982;-49